sensor_id;sensor_type;location;lat;lon;timestamp;P1;durP1;ratioP1;P2;durP2;ratioP2
25905;SDS011;13713;52.552;13.204;2023-04-01T00:00:23;12.70;;;7.63;;
25905;SDS011;13713;52.552;13.204;2023-04-01T00:02:49;11.10;;;7.50;;
25905;SDS011;13713;52.552;13.204;2023-04-01T00:05:15;11.48;;;6.88;;
25905;SDS011;13713;52.552;13.204;2023-04-01T00:07:41;12.57;;;7.50;;
25905;SDS011;13713;52.552;13.204;2023-04-01T00:10:08;10.00;;;6.63;;
25905;SDS011;13713;52.552;13.204;2023-04-01T00:12:36;10.60;;;7.97;;
25905;SDS011;13713;52.552;13.204;2023-04-01T00:15:03;11.05;;;7.47;;
25905;SDS011;13713;52.552;13.204;2023-04-01T00:17:30;11.68;;;7.78;;
25905;SDS011;13713;52.552;13.204;2023-04-01T00:19:56;11.73;;;7.43;;
25905;SDS011;13713;52.552;13.204;2023-04-01T00:22:23;11.40;;;7.60;;
25905;SDS011;13713;52.552;13.204;2023-04-01T00:24:49;11.80;;;7.75;;
25905;SDS011;13713;52.552;13.204;2023-04-01T00:27:15;13.07;;;7.18;;
25905;SDS011;13713;52.552;13.204;2023-04-01T00:29:42;9.82;;;6.93;;
25905;SDS011;13713;52.552;13.204;2023-04-01T00:32:08;9.90;;;6.75;;
25905;SDS011;13713;52.552;13.204;2023-04-01T00:34:34;11.70;;;7.35;;
25905;SDS011;13713;52.552;13.204;2023-04-01T00:37:00;12.00;;;7.63;;
25905;SDS011;13713;52.552;13.204;2023-04-01T00:39:28;10.40;;;6.93;;
25905;SDS011;13713;52.552;13.204;2023-04-01T00:41:58;12.18;;;8.05;;
25905;SDS011;13713;52.552;13.204;2023-04-01T00:44:26;11.15;;;7.10;;
25905;SDS011;13713;52.552;13.204;2023-04-01T00:46:54;9.88;;;7.13;;
25905;SDS011;13713;52.552;13.204;2023-04-01T00:49:21;8.63;;;6.68;;
25905;SDS011;13713;52.552;13.204;2023-04-01T00:51:51;10.70;;;7.22;;
25905;SDS011;13713;52.552;13.204;2023-04-01T00:54:19;10.00;;;7.00;;
25905;SDS011;13713;52.552;13.204;2023-04-01T00:57:32;11.80;;;7.07;;
25905;SDS011;13713;52.552;13.204;2023-04-01T00:59:39;9.98;;;6.35;;
25905;SDS011;13713;52.552;13.204;2023-04-01T01:02:10;9.90;;;6.45;;
25905;SDS011;13713;52.552;13.204;2023-04-01T01:04:36;8.98;;;6.70;;
25905;SDS011;13713;52.552;13.204;2023-04-01T01:15:32;8.88;;;6.45;;
25905;SDS011;13713;52.552;13.204;2023-04-01T01:23:57;8.82;;;6.18;;
25905;SDS011;13713;52.552;13.204;2023-04-01T01:30:16;8.60;;;6.32;;
25905;SDS011;13713;52.552;13.204;2023-04-01T01:35:31;10.60;;;6.30;;
25905;SDS011;13713;52.552;13.204;2023-04-01T01:38:18;9.27;;;6.82;;
25905;SDS011;13713;52.552;13.204;2023-04-01T01:41:08;9.38;;;6.40;;
25905;SDS011;13713;52.552;13.204;2023-04-01T01:43:36;10.80;;;6.40;;
25905;SDS011;13713;52.552;13.204;2023-04-01T01:46:10;9.02;;;6.40;;
25905;SDS011;13713;52.552;13.204;2023-04-01T01:48:40;9.80;;;6.40;;
25905;SDS011;13713;52.552;13.204;2023-04-01T01:51:08;9.32;;;6.30;;
25905;SDS011;13713;52.552;13.204;2023-04-01T01:53:34;8.15;;;5.95;;
25905;SDS011;13713;52.552;13.204;2023-04-01T01:56:00;8.32;;;6.25;;
25905;SDS011;13713;52.552;13.204;2023-04-01T01:58:30;8.65;;;6.28;;
25905;SDS011;13713;52.552;13.204;2023-04-01T02:01:00;9.45;;;6.60;;
25905;SDS011;13713;52.552;13.204;2023-04-01T02:03:30;10.75;;;6.75;;
25905;SDS011;13713;52.552;13.204;2023-04-01T02:05:59;8.55;;;5.93;;
25905;SDS011;13713;52.552;13.204;2023-04-01T02:08:30;9.00;;;6.32;;
25905;SDS011;13713;52.552;13.204;2023-04-01T02:11:03;9.00;;;5.97;;
25905;SDS011;13713;52.552;13.204;2023-04-01T02:14:00;9.23;;;6.78;;
25905;SDS011;13713;52.552;13.204;2023-04-01T02:16:30;9.45;;;6.18;;
25905;SDS011;13713;52.552;13.204;2023-04-01T02:19:08;9.57;;;5.78;;
25905;SDS011;13713;52.552;13.204;2023-04-01T02:21:37;9.10;;;6.45;;
25905;SDS011;13713;52.552;13.204;2023-04-01T02:24:06;8.57;;;5.82;;
25905;SDS011;13713;52.552;13.204;2023-04-01T02:26:35;7.57;;;5.90;;
25905;SDS011;13713;52.552;13.204;2023-04-01T02:29:01;9.40;;;6.10;;
25905;SDS011;13713;52.552;13.204;2023-04-01T02:31:29;9.70;;;5.50;;
25905;SDS011;13713;52.552;13.204;2023-04-01T02:33:57;7.38;;;5.70;;
25905;SDS011;13713;52.552;13.204;2023-04-01T02:36:23;9.13;;;6.15;;
25905;SDS011;13713;52.552;13.204;2023-04-01T02:38:50;8.70;;;6.18;;
25905;SDS011;13713;52.552;13.204;2023-04-01T02:41:17;8.52;;;6.07;;
25905;SDS011;13713;52.552;13.204;2023-04-01T02:43:43;9.55;;;6.05;;
25905;SDS011;13713;52.552;13.204;2023-04-01T02:46:09;8.35;;;5.45;;
25905;SDS011;13713;52.552;13.204;2023-04-01T02:48:34;10.57;;;6.75;;
25905;SDS011;13713;52.552;13.204;2023-04-01T02:51:00;8.50;;;5.55;;
25905;SDS011;13713;52.552;13.204;2023-04-01T02:53:26;7.82;;;5.68;;
25905;SDS011;13713;52.552;13.204;2023-04-01T02:55:52;8.25;;;6.03;;
25905;SDS011;13713;52.552;13.204;2023-04-01T02:58:18;8.60;;;6.18;;
25905;SDS011;13713;52.552;13.204;2023-04-01T03:00:43;9.10;;;6.38;;
25905;SDS011;13713;52.552;13.204;2023-04-01T03:03:09;7.97;;;5.63;;
25905;SDS011;13713;52.552;13.204;2023-04-01T03:05:35;8.02;;;5.65;;
25905;SDS011;13713;52.552;13.204;2023-04-01T03:08:01;8.32;;;5.63;;
25905;SDS011;13713;52.552;13.204;2023-04-01T03:10:27;8.25;;;5.72;;
25905;SDS011;13713;52.552;13.204;2023-04-01T03:12:53;9.55;;;5.43;;
25905;SDS011;13713;52.552;13.204;2023-04-01T03:15:19;7.78;;;5.30;;
25905;SDS011;13713;52.552;13.204;2023-04-01T03:17:45;9.38;;;5.80;;
25905;SDS011;13713;52.552;13.204;2023-04-01T03:20:12;7.20;;;5.07;;
25905;SDS011;13713;52.552;13.204;2023-04-01T03:22:38;7.30;;;5.18;;
25905;SDS011;13713;52.552;13.204;2023-04-01T03:25:05;7.85;;;5.55;;
25905;SDS011;13713;52.552;13.204;2023-04-01T03:27:31;9.00;;;5.63;;
25905;SDS011;13713;52.552;13.204;2023-04-01T03:29:56;8.27;;;5.75;;
25905;SDS011;13713;52.552;13.204;2023-04-01T03:32:22;7.50;;;5.75;;
25905;SDS011;13713;52.552;13.204;2023-04-01T03:34:48;8.30;;;5.57;;
25905;SDS011;13713;52.552;13.204;2023-04-01T03:37:13;8.20;;;5.32;;
25905;SDS011;13713;52.552;13.204;2023-04-01T03:39:39;8.13;;;5.45;;
25905;SDS011;13713;52.552;13.204;2023-04-01T03:42:05;8.18;;;5.47;;
25905;SDS011;13713;52.552;13.204;2023-04-01T03:44:32;7.50;;;5.30;;
25905;SDS011;13713;52.552;13.204;2023-04-01T03:46:58;7.88;;;5.20;;
25905;SDS011;13713;52.552;13.204;2023-04-01T03:49:25;7.97;;;5.43;;
25905;SDS011;13713;52.552;13.204;2023-04-01T03:51:51;7.65;;;5.88;;
25905;SDS011;13713;52.552;13.204;2023-04-01T03:54:17;7.03;;;5.13;;
25905;SDS011;13713;52.552;13.204;2023-04-01T03:56:45;8.07;;;5.82;;
25905;SDS011;13713;52.552;13.204;2023-04-01T03:59:11;9.18;;;5.55;;
25905;SDS011;13713;52.552;13.204;2023-04-01T04:01:37;8.18;;;5.55;;
25905;SDS011;13713;52.552;13.204;2023-04-01T04:04:03;7.70;;;4.85;;
25905;SDS011;13713;52.552;13.204;2023-04-01T04:06:29;7.30;;;5.22;;
25905;SDS011;13713;52.552;13.204;2023-04-01T04:08:55;7.50;;;5.00;;
25905;SDS011;13713;52.552;13.204;2023-04-01T04:11:21;10.18;;;5.70;;
25905;SDS011;13713;52.552;13.204;2023-04-01T04:13:49;8.00;;;5.45;;
25905;SDS011;13713;52.552;13.204;2023-04-01T04:16:17;7.07;;;5.25;;
25905;SDS011;13713;52.552;13.204;2023-04-01T04:18:47;7.43;;;5.68;;
25905;SDS011;13713;52.552;13.204;2023-04-01T04:21:13;7.78;;;4.95;;
25905;SDS011;13713;52.552;13.204;2023-04-01T04:23:40;7.07;;;5.03;;
25905;SDS011;13713;52.552;13.204;2023-04-01T04:26:08;9.30;;;5.40;;
25905;SDS011;13713;52.552;13.204;2023-04-01T04:28:36;8.38;;;5.60;;
25905;SDS011;13713;52.552;13.204;2023-04-01T04:31:02;7.80;;;5.32;;
25905;SDS011;13713;52.552;13.204;2023-04-01T04:33:30;8.07;;;4.78;;
25905;SDS011;13713;52.552;13.204;2023-04-01T04:35:57;7.13;;;5.15;;
25905;SDS011;13713;52.552;13.204;2023-04-01T04:38:24;6.20;;;4.88;;
25905;SDS011;13713;52.552;13.204;2023-04-01T04:40:50;7.22;;;4.97;;
25905;SDS011;13713;52.552;13.204;2023-04-01T04:43:16;8.32;;;4.90;;
25905;SDS011;13713;52.552;13.204;2023-04-01T04:45:43;6.90;;;4.65;;
25905;SDS011;13713;52.552;13.204;2023-04-01T04:48:10;8.65;;;5.18;;
25905;SDS011;13713;52.552;13.204;2023-04-01T04:50:44;7.10;;;4.80;;
25905;SDS011;13713;52.552;13.204;2023-04-01T04:53:16;7.30;;;5.10;;
25905;SDS011;13713;52.552;13.204;2023-04-01T04:55:47;6.63;;;4.97;;
25905;SDS011;13713;52.552;13.204;2023-04-01T04:58:21;6.40;;;4.95;;
25905;SDS011;13713;52.552;13.204;2023-04-01T05:00:48;7.72;;;5.53;;
25905;SDS011;13713;52.552;13.204;2023-04-01T05:03:24;7.65;;;5.55;;
25905;SDS011;13713;52.552;13.204;2023-04-01T05:05:51;8.07;;;5.18;;
25905;SDS011;13713;52.552;13.204;2023-04-01T05:08:18;8.65;;;5.05;;
25905;SDS011;13713;52.552;13.204;2023-04-01T05:10:45;6.82;;;4.75;;
25905;SDS011;13713;52.552;13.204;2023-04-01T05:13:11;7.20;;;4.85;;
25905;SDS011;13713;52.552;13.204;2023-04-01T05:15:37;6.85;;;4.70;;
25905;SDS011;13713;52.552;13.204;2023-04-01T05:18:03;7.30;;;4.70;;
25905;SDS011;13713;52.552;13.204;2023-04-01T05:20:29;7.82;;;5.28;;
25905;SDS011;13713;52.552;13.204;2023-04-01T05:22:56;7.93;;;5.03;;
25905;SDS011;13713;52.552;13.204;2023-04-01T05:25:22;7.28;;;4.75;;
25905;SDS011;13713;52.552;13.204;2023-04-01T05:27:48;6.82;;;4.75;;
25905;SDS011;13713;52.552;13.204;2023-04-01T05:30:13;7.40;;;4.72;;
25905;SDS011;13713;52.552;13.204;2023-04-01T05:32:51;6.95;;;4.68;;
25905;SDS011;13713;52.552;13.204;2023-04-01T05:35:17;7.22;;;5.03;;
25905;SDS011;13713;52.552;13.204;2023-04-01T05:37:42;6.20;;;4.57;;
25905;SDS011;13713;52.552;13.204;2023-04-01T05:40:09;6.25;;;4.68;;
25905;SDS011;13713;52.552;13.204;2023-04-01T05:42:35;6.13;;;4.68;;
25905;SDS011;13713;52.552;13.204;2023-04-01T05:45:01;6.72;;;4.88;;
25905;SDS011;13713;52.552;13.204;2023-04-01T05:47:49;5.90;;;4.40;;
25905;SDS011;13713;52.552;13.204;2023-04-01T05:50:15;8.32;;;5.38;;
25905;SDS011;13713;52.552;13.204;2023-04-01T05:52:40;6.72;;;4.90;;
25905;SDS011;13713;52.552;13.204;2023-04-01T05:55:06;7.35;;;5.10;;
25905;SDS011;13713;52.552;13.204;2023-04-01T05:57:32;7.40;;;5.18;;
25905;SDS011;13713;52.552;13.204;2023-04-01T05:59:58;6.57;;;4.85;;
25905;SDS011;13713;52.552;13.204;2023-04-01T06:02:24;6.82;;;4.88;;
25905;SDS011;13713;52.552;13.204;2023-04-01T06:04:50;7.10;;;4.60;;
25905;SDS011;13713;52.552;13.204;2023-04-01T06:07:25;6.50;;;4.72;;
25905;SDS011;13713;52.552;13.204;2023-04-01T06:09:53;7.20;;;4.55;;
25905;SDS011;13713;52.552;13.204;2023-04-01T06:12:26;5.85;;;4.43;;
25905;SDS011;13713;52.552;13.204;2023-04-01T06:29:00;7.50;;;4.55;;
25905;SDS011;13713;52.552;13.204;2023-04-01T06:31:56;6.53;;;4.85;;
25905;SDS011;13713;52.552;13.204;2023-04-01T06:42:29;6.97;;;4.47;;
25905;SDS011;13713;52.552;13.204;2023-04-01T06:45:13;7.15;;;4.53;;
25905;SDS011;13713;52.552;13.204;2023-04-01T06:51:19;6.57;;;3.97;;
25905;SDS011;13713;52.552;13.204;2023-04-01T06:54:31;6.40;;;4.25;;
25905;SDS011;13713;52.552;13.204;2023-04-01T06:57:32;7.75;;;4.60;;
25905;SDS011;13713;52.552;13.204;2023-04-01T07:00:04;6.25;;;4.70;;
25905;SDS011;13713;52.552;13.204;2023-04-01T07:05:43;8.10;;;4.63;;
25905;SDS011;13713;52.552;13.204;2023-04-01T07:08:10;6.68;;;4.57;;
25905;SDS011;13713;52.552;13.204;2023-04-01T07:13:30;6.35;;;4.30;;
25905;SDS011;13713;52.552;13.204;2023-04-01T07:19:05;6.30;;;4.53;;
25905;SDS011;13713;52.552;13.204;2023-04-01T07:21:54;6.30;;;4.43;;
25905;SDS011;13713;52.552;13.204;2023-04-01T07:24:47;5.95;;;4.40;;
25905;SDS011;13713;52.552;13.204;2023-04-01T07:27:14;6.40;;;4.60;;
25905;SDS011;13713;52.552;13.204;2023-04-01T07:29:42;6.95;;;4.38;;
25905;SDS011;13713;52.552;13.204;2023-04-01T07:32:23;7.13;;;4.70;;
25905;SDS011;13713;52.552;13.204;2023-04-01T07:37:50;5.97;;;4.60;;
25905;SDS011;13713;52.552;13.204;2023-04-01T07:40:45;6.50;;;4.15;;
25905;SDS011;13713;52.552;13.204;2023-04-01T07:49:07;7.50;;;4.93;;
25905;SDS011;13713;52.552;13.204;2023-04-01T07:51:47;5.90;;;4.47;;
25905;SDS011;13713;52.552;13.204;2023-04-01T07:54:22;6.15;;;4.38;;
25905;SDS011;13713;52.552;13.204;2023-04-01T08:08:00;6.90;;;4.50;;
25905;SDS011;13713;52.552;13.204;2023-04-01T08:11:23;5.95;;;4.60;;
25905;SDS011;13713;52.552;13.204;2023-04-01T08:15:03;5.78;;;4.03;;
25905;SDS011;13713;52.552;13.204;2023-04-01T08:23:16;6.35;;;4.15;;
25905;SDS011;13713;52.552;13.204;2023-04-01T08:28:36;6.38;;;4.43;;
25905;SDS011;13713;52.552;13.204;2023-04-01T08:31:22;5.18;;;4.30;;
25905;SDS011;13713;52.552;13.204;2023-04-01T08:34:15;5.68;;;4.10;;
25905;SDS011;13713;52.552;13.204;2023-04-01T08:36:51;6.28;;;4.22;;
25905;SDS011;13713;52.552;13.204;2023-04-01T08:39:28;7.20;;;4.15;;
25905;SDS011;13713;52.552;13.204;2023-04-01T08:42:03;7.50;;;4.47;;
25905;SDS011;13713;52.552;13.204;2023-04-01T08:56:28;6.07;;;4.10;;
25905;SDS011;13713;52.552;13.204;2023-04-01T09:07:35;5.82;;;4.00;;
25905;SDS011;13713;52.552;13.204;2023-04-01T09:19:19;6.32;;;4.50;;
25905;SDS011;13713;52.552;13.204;2023-04-01T09:24:30;7.10;;;4.65;;
25905;SDS011;13713;52.552;13.204;2023-04-01T09:27:27;8.10;;;4.97;;
25905;SDS011;13713;52.552;13.204;2023-04-01T09:41:27;9.65;;;6.35;;
25905;SDS011;13713;52.552;13.204;2023-04-01T09:52:43;10.02;;;7.22;;
25905;SDS011;13713;52.552;13.204;2023-04-01T10:18:11;10.63;;;8.15;;
25905;SDS011;13713;52.552;13.204;2023-04-01T10:23:47;11.05;;;7.50;;
25905;SDS011;13713;52.552;13.204;2023-04-01T10:44:39;13.68;;;8.93;;
25905;SDS011;13713;52.552;13.204;2023-04-01T10:50:46;12.80;;;9.13;;
25905;SDS011;13713;52.552;13.204;2023-04-01T11:11:55;13.57;;;10.00;;
25905;SDS011;13713;52.552;13.204;2023-04-01T11:17:44;14.82;;;10.25;;
25905;SDS011;13713;52.552;13.204;2023-04-01T11:23:11;15.65;;;10.77;;
25905;SDS011;13713;52.552;13.204;2023-04-01T11:29:04;14.05;;;10.15;;
25905;SDS011;13713;52.552;13.204;2023-04-01T11:32:10;13.52;;;9.95;;
25905;SDS011;13713;52.552;13.204;2023-04-01T11:40:29;14.73;;;10.07;;
25905;SDS011;13713;52.552;13.204;2023-04-01T11:43:32;13.70;;;9.85;;
25905;SDS011;13713;52.552;13.204;2023-04-01T12:03:43;14.77;;;10.45;;
25905;SDS011;13713;52.552;13.204;2023-04-01T12:12:27;15.57;;;10.95;;
25905;SDS011;13713;52.552;13.204;2023-04-01T12:15:16;14.63;;;10.63;;
25905;SDS011;13713;52.552;13.204;2023-04-01T12:29:18;18.30;;;12.02;;
25905;SDS011;13713;52.552;13.204;2023-04-01T12:31:57;16.42;;;11.60;;
25905;SDS011;13713;52.552;13.204;2023-04-01T12:34:42;16.35;;;11.55;;
25905;SDS011;13713;52.552;13.204;2023-04-01T12:37:44;16.85;;;12.00;;
25905;SDS011;13713;52.552;13.204;2023-04-01T12:40:17;15.63;;;11.13;;
25905;SDS011;13713;52.552;13.204;2023-04-01T12:48:27;17.10;;;12.18;;
25905;SDS011;13713;52.552;13.204;2023-04-01T12:54:31;17.35;;;12.50;;
25905;SDS011;13713;52.552;13.204;2023-04-01T13:00:17;16.45;;;12.57;;
25905;SDS011;13713;52.552;13.204;2023-04-01T13:11:23;19.52;;;13.52;;
25905;SDS011;13713;52.552;13.204;2023-04-01T13:14:02;18.35;;;12.63;;
25905;SDS011;13713;52.552;13.204;2023-04-01T13:16:42;17.90;;;13.15;;
25905;SDS011;13713;52.552;13.204;2023-04-01T13:21:58;19.13;;;13.38;;
25905;SDS011;13713;52.552;13.204;2023-04-01T13:24:52;20.45;;;14.07;;
25905;SDS011;13713;52.552;13.204;2023-04-01T13:27:35;19.27;;;13.73;;
25905;SDS011;13713;52.552;13.204;2023-04-01T13:38:24;20.85;;;14.70;;
25905;SDS011;13713;52.552;13.204;2023-04-01T13:41:09;21.27;;;14.63;;
25905;SDS011;13713;52.552;13.204;2023-04-01T13:43:51;21.23;;;13.88;;
25905;SDS011;13713;52.552;13.204;2023-04-01T13:49:11;17.55;;;12.73;;
25905;SDS011;13713;52.552;13.204;2023-04-01T14:00:06;19.40;;;12.75;;
25905;SDS011;13713;52.552;13.204;2023-04-01T14:10:55;17.20;;;11.73;;
25905;SDS011;13713;52.552;13.204;2023-04-01T14:13:55;16.00;;;11.63;;
25905;SDS011;13713;52.552;13.204;2023-04-01T14:19:21;18.88;;;11.32;;
25905;SDS011;13713;52.552;13.204;2023-04-01T14:27:49;14.30;;;10.35;;
25905;SDS011;13713;52.552;13.204;2023-04-01T14:33:37;13.82;;;10.52;;
25905;SDS011;13713;52.552;13.204;2023-04-01T14:38:46;15.07;;;11.20;;
25905;SDS011;13713;52.552;13.204;2023-04-01T14:44:24;15.50;;;10.80;;
25905;SDS011;13713;52.552;13.204;2023-04-01T14:50:12;14.10;;;9.75;;
25905;SDS011;13713;52.552;13.204;2023-04-01T14:52:44;12.95;;;9.23;;
25905;SDS011;13713;52.552;13.204;2023-04-01T14:56:02;13.57;;;9.07;;
25905;SDS011;13713;52.552;13.204;2023-04-01T14:58:13;12.85;;;9.57;;
25905;SDS011;13713;52.552;13.204;2023-04-01T15:03:40;13.38;;;9.50;;
25905;SDS011;13713;52.552;13.204;2023-04-01T15:09:31;14.90;;;8.75;;
25905;SDS011;13713;52.552;13.204;2023-04-01T15:12:22;13.05;;;9.30;;
25905;SDS011;13713;52.552;13.204;2023-04-01T15:15:10;13.48;;;9.35;;
25905;SDS011;13713;52.552;13.204;2023-04-01T15:18:11;11.65;;;8.93;;
25905;SDS011;13713;52.552;13.204;2023-04-01T15:26:26;11.73;;;8.73;;
25905;SDS011;13713;52.552;13.204;2023-04-01T15:29:15;13.80;;;9.65;;
25905;SDS011;13713;52.552;13.204;2023-04-01T15:39:48;12.60;;;9.20;;
25905;SDS011;13713;52.552;13.204;2023-04-01T15:50:46;13.27;;;9.23;;
25905;SDS011;13713;52.552;13.204;2023-04-01T15:53:25;12.57;;;8.88;;
25905;SDS011;13713;52.552;13.204;2023-04-01T15:56:16;13.27;;;9.20;;
25905;SDS011;13713;52.552;13.204;2023-04-01T15:59:12;13.18;;;9.65;;
25905;SDS011;13713;52.552;13.204;2023-04-01T16:07:47;12.98;;;8.95;;
25905;SDS011;13713;52.552;13.204;2023-04-01T16:21:58;11.75;;;8.90;;
25905;SDS011;13713;52.552;13.204;2023-04-01T16:24:48;13.75;;;9.02;;
25905;SDS011;13713;52.552;13.204;2023-04-01T16:27:18;12.20;;;9.10;;
25905;SDS011;13713;52.552;13.204;2023-04-01T16:29:58;11.68;;;8.85;;
25905;SDS011;13713;52.552;13.204;2023-04-01T16:32:53;13.48;;;9.90;;
25905;SDS011;13713;52.552;13.204;2023-04-01T16:43:43;12.32;;;9.70;;
25905;SDS011;13713;52.552;13.204;2023-04-01T16:51:54;12.38;;;8.82;;
25905;SDS011;13713;52.552;13.204;2023-04-01T16:54:57;11.70;;;8.20;;
25905;SDS011;13713;52.552;13.204;2023-04-01T17:03:22;12.88;;;9.55;;
25905;SDS011;13713;52.552;13.204;2023-04-01T17:08:39;13.05;;;9.00;;
25905;SDS011;13713;52.552;13.204;2023-04-01T17:16:41;16.38;;;8.82;;
25905;SDS011;13713;52.552;13.204;2023-04-01T17:32:46;10.88;;;7.57;;
25905;SDS011;13713;52.552;13.204;2023-04-01T17:41:42;10.75;;;7.40;;
25905;SDS011;13713;52.552;13.204;2023-04-01T17:44:25;10.93;;;7.55;;
25905;SDS011;13713;52.552;13.204;2023-04-01T17:49:48;12.65;;;8.77;;
25905;SDS011;13713;52.552;13.204;2023-04-01T18:03:41;10.68;;;7.55;;
25905;SDS011;13713;52.552;13.204;2023-04-01T18:14:54;11.60;;;7.90;;
25905;SDS011;13713;52.552;13.204;2023-04-01T18:23:03;10.73;;;7.18;;
25905;SDS011;13713;52.552;13.204;2023-04-01T18:25:44;9.68;;;7.47;;
25905;SDS011;13713;52.552;13.204;2023-04-01T18:31:11;10.40;;;7.45;;
25905;SDS011;13713;52.552;13.204;2023-04-01T18:38:57;11.10;;;7.65;;
25905;SDS011;13713;52.552;13.204;2023-04-01T18:41:35;11.35;;;7.80;;
25905;SDS011;13713;52.552;13.204;2023-04-01T18:44:14;11.93;;;7.45;;
25905;SDS011;13713;52.552;13.204;2023-04-01T18:52:12;12.80;;;7.57;;
25905;SDS011;13713;52.552;13.204;2023-04-01T18:57:47;11.15;;;7.53;;
25905;SDS011;13713;52.552;13.204;2023-04-01T19:00:20;11.15;;;7.93;;
25905;SDS011;13713;52.552;13.204;2023-04-01T19:03:02;11.07;;;7.90;;
25905;SDS011;13713;52.552;13.204;2023-04-01T19:05:47;12.98;;;8.15;;
25905;SDS011;13713;52.552;13.204;2023-04-01T19:08:48;11.15;;;7.82;;
25905;SDS011;13713;52.552;13.204;2023-04-01T19:11:10;9.98;;;6.97;;
25905;SDS011;13713;52.552;13.204;2023-04-01T19:21:56;12.10;;;8.25;;
25905;SDS011;13713;52.552;13.204;2023-04-01T19:35:38;11.73;;;8.25;;
25905;SDS011;13713;52.552;13.204;2023-04-01T19:40:53;14.25;;;9.25;;
25905;SDS011;13713;52.552;13.204;2023-04-01T19:51:37;14.77;;;9.93;;
25905;SDS011;13713;52.552;13.204;2023-04-01T19:54:20;14.35;;;10.40;;
25905;SDS011;13713;52.552;13.204;2023-04-01T19:59:38;13.70;;;10.10;;
25905;SDS011;13713;52.552;13.204;2023-04-01T20:02:39;15.75;;;10.73;;
25905;SDS011;13713;52.552;13.204;2023-04-01T20:05:21;16.85;;;10.80;;
25905;SDS011;13713;52.552;13.204;2023-04-01T20:08:00;18.50;;;11.40;;
25905;SDS011;13713;52.552;13.204;2023-04-01T20:16:11;15.48;;;11.15;;
25905;SDS011;13713;52.552;13.204;2023-04-01T20:26:21;20.05;;;11.95;;
25905;SDS011;13713;52.552;13.204;2023-04-01T20:31:42;17.35;;;11.57;;
25905;SDS011;13713;52.552;13.204;2023-04-01T20:39:47;17.65;;;12.25;;
25905;SDS011;13713;52.552;13.204;2023-04-01T20:50:57;19.10;;;13.20;;
25905;SDS011;13713;52.552;13.204;2023-04-01T20:53:29;19.55;;;12.95;;
25905;SDS011;13713;52.552;13.204;2023-04-01T21:07:01;21.02;;;14.05;;
25905;SDS011;13713;52.552;13.204;2023-04-01T21:17:37;24.08;;;14.48;;
25905;SDS011;13713;52.552;13.204;2023-04-01T21:20:29;20.70;;;13.90;;
25905;SDS011;13713;52.552;13.204;2023-04-01T21:28:35;21.88;;;14.65;;
25905;SDS011;13713;52.552;13.204;2023-04-01T21:34:07;21.20;;;14.70;;
25905;SDS011;13713;52.552;13.204;2023-04-01T21:40:00;21.77;;;14.50;;
25905;SDS011;13713;52.552;13.204;2023-04-01T21:43:05;22.30;;;14.98;;
25905;SDS011;13713;52.552;13.204;2023-04-01T21:45:50;22.45;;;15.25;;
25905;SDS011;13713;52.552;13.204;2023-04-01T22:05:35;21.95;;;14.75;;
25905;SDS011;13713;52.552;13.204;2023-04-01T22:10:50;21.15;;;14.40;;
25905;SDS011;13713;52.552;13.204;2023-04-01T22:22:11;23.13;;;15.00;;
25905;SDS011;13713;52.552;13.204;2023-04-01T22:25:08;22.75;;;15.25;;
25905;SDS011;13713;52.552;13.204;2023-04-01T22:27:46;22.05;;;14.48;;
25905;SDS011;13713;52.552;13.204;2023-04-01T22:30:17;22.65;;;15.75;;
25905;SDS011;13713;52.552;13.204;2023-04-01T22:33:11;20.70;;;15.25;;
25905;SDS011;13713;52.552;13.204;2023-04-01T22:35:52;24.08;;;15.95;;
25905;SDS011;13713;52.552;13.204;2023-04-01T22:43:42;24.98;;;16.00;;
25905;SDS011;13713;52.552;13.204;2023-04-01T22:46:16;23.00;;;15.38;;
25905;SDS011;13713;52.552;13.204;2023-04-01T23:04:42;27.23;;;16.58;;
25905;SDS011;13713;52.552;13.204;2023-04-01T23:10:17;22.55;;;15.27;;
25905;SDS011;13713;52.552;13.204;2023-04-01T23:12:47;21.48;;;14.75;;
25905;SDS011;13713;52.552;13.204;2023-04-01T23:15:16;21.60;;;15.05;;
25905;SDS011;13713;52.552;13.204;2023-04-01T23:20:47;20.25;;;14.35;;
25905;SDS011;13713;52.552;13.204;2023-04-01T23:23:52;22.40;;;15.35;;
25905;SDS011;13713;52.552;13.204;2023-04-01T23:26:30;22.20;;;15.32;;
25905;SDS011;13713;52.552;13.204;2023-04-01T23:29:20;18.88;;;14.02;;
25905;SDS011;13713;52.552;13.204;2023-04-01T23:31:57;21.17;;;14.43;;
25905;SDS011;13713;52.552;13.204;2023-04-01T23:34:28;19.75;;;14.00;;
25905;SDS011;13713;52.552;13.204;2023-04-01T23:37:18;19.85;;;14.13;;
25905;SDS011;13713;52.552;13.204;2023-04-01T23:39:46;20.08;;;14.20;;
25905;SDS011;13713;52.552;13.204;2023-04-01T23:42:24;19.42;;;13.93;;
25905;SDS011;13713;52.552;13.204;2023-04-01T23:44:53;18.10;;;13.70;;
25905;SDS011;13713;52.552;13.204;2023-04-01T23:47:25;19.42;;;14.60;;
25905;SDS011;13713;52.552;13.204;2023-04-01T23:49:57;22.17;;;14.75;;
25905;SDS011;13713;52.552;13.204;2023-04-01T23:52:26;20.95;;;14.45;;
25905;SDS011;13713;52.552;13.204;2023-04-01T23:54:58;20.35;;;14.20;;
25905;SDS011;13713;52.552;13.204;2023-04-01T23:57:34;19.38;;;13.95;;
